Hooker, Oklahoma
Current Conditions -  °F | °C
As of 6:15 PM on Sunday 23 Nov 2014 (Local Time) from KLBL Reporting Station
Clear Clear  
Wind Chill: 37°   Ceiling: Unl
Heat Index: 45°   Visibility: 10mi
Dew Point: 12°   Wind: 16mph
Humidity: 27%   Direction: 340°NNW
Pressure: 29.77"   Gusts: NA
Location:  36.86°N, 101.21°W
Report Text: KLBL 240015Z AUTO 34014KT 10SM CLR 07/M11 A2977 RMK AO1
Loading
Personal Weather Stations






























Interactive Weather Map New forecast layout! Learn more

10-Day Weather Forecast

Advertisements
Track Severe Weather on mobile